sensor_id;sensor_type;location;lat;lon;timestamp;temperature;humidity
14411;DHT22;7290;50.854;4.354;2022-09-04T00:02:15;22.20;99.90
14411;DHT22;7290;50.854;4.354;2022-09-04T00:04:50;22.20;99.90
14411;DHT22;7290;50.854;4.354;2022-09-04T00:07:24;22.20;99.90
14411;DHT22;7290;50.854;4.354;2022-09-04T00:10:02;22.10;99.90
14411;DHT22;7290;50.854;4.354;2022-09-04T00:12:40;22.10;99.90
14411;DHT22;7290;50.854;4.354;2022-09-04T00:15:12;22.10;99.90
14411;DHT22;7290;50.854;4.354;2022-09-04T00:17:44;22.10;99.90
14411;DHT22;7290;50.854;4.354;2022-09-04T00:20:24;22.10;99.90
14411;DHT22;7290;50.854;4.354;2022-09-04T00:22:56;22.10;99.90
14411;DHT22;7290;50.854;4.354;2022-09-04T00:25:27;22.10;99.90
14411;DHT22;7290;50.854;4.354;2022-09-04T00:28:02;22.00;99.90
14411;DHT22;7290;50.854;4.354;2022-09-04T00:30:30;22.00;99.90
14411;DHT22;7290;50.854;4.354;2022-09-04T00:33:02;21.90;99.90
14411;DHT22;7290;50.854;4.354;2022-09-04T00:35:35;21.90;99.90
14411;DHT22;7290;50.854;4.354;2022-09-04T00:38:07;22.00;99.90
14411;DHT22;7290;50.854;4.354;2022-09-04T00:40:37;22.00;99.90
14411;DHT22;7290;50.854;4.354;2022-09-04T00:43:19;22.00;99.90
14411;DHT22;7290;50.854;4.354;2022-09-04T00:46:02;22.00;99.90
14411;DHT22;7290;50.854;4.354;2022-09-04T00:49:06;22.00;99.90
14411;DHT22;7290;50.854;4.354;2022-09-04T00:51:42;22.00;99.90
14411;DHT22;7290;50.854;4.354;2022-09-04T00:54:45;22.00;99.90
14411;DHT22;7290;50.854;4.354;2022-09-04T00:57:39;22.00;99.90
14411;DHT22;7290;50.854;4.354;2022-09-04T01:00:10;22.00;99.90
14411;DHT22;7290;50.854;4.354;2022-09-04T01:03:02;22.00;99.90
14411;DHT22;7290;50.854;4.354;2022-09-04T01:05:38;21.80;99.90
14411;DHT22;7290;50.854;4.354;2022-09-04T01:08:17;21.60;99.90
14411;DHT22;7290;50.854;4.354;2022-09-04T01:10:50;21.60;99.90
14411;DHT22;7290;50.854;4.354;2022-09-04T01:13:30;21.60;99.90
14411;DHT22;7290;50.854;4.354;2022-09-04T01:16:04;21.70;99.90
14411;DHT22;7290;50.854;4.354;2022-09-04T01:18:39;21.70;99.90
14411;DHT22;7290;50.854;4.354;2022-09-04T01:21:23;21.70;99.90
14411;DHT22;7290;50.854;4.354;2022-09-04T01:24:18;21.70;99.90
14411;DHT22;7290;50.854;4.354;2022-09-04T01:26:54;21.70;99.90
14411;DHT22;7290;50.854;4.354;2022-09-04T01:29:30;21.70;99.90
14411;DHT22;7290;50.854;4.354;2022-09-04T01:32:06;21.70;99.90
14411;DHT22;7290;50.854;4.354;2022-09-04T01:34:39;21.70;99.90
14411;DHT22;7290;50.854;4.354;2022-09-04T01:37:24;21.60;99.90
14411;DHT22;7290;50.854;4.354;2022-09-04T01:40:02;21.50;99.90
14411;DHT22;7290;50.854;4.354;2022-09-04T01:42:41;21.60;99.90
14411;DHT22;7290;50.854;4.354;2022-09-04T01:45:09;21.50;99.90
14411;DHT22;7290;50.854;4.354;2022-09-04T01:47:41;21.40;99.90
14411;DHT22;7290;50.854;4.354;2022-09-04T01:50:10;21.50;99.90
14411;DHT22;7290;50.854;4.354;2022-09-04T01:52:54;21.50;99.90
14411;DHT22;7290;50.854;4.354;2022-09-04T01:55:27;21.40;99.90
14411;DHT22;7290;50.854;4.354;2022-09-04T01:58:05;21.40;99.90
14411;DHT22;7290;50.854;4.354;2022-09-04T02:00:39;21.50;99.90
14411;DHT22;7290;50.854;4.354;2022-09-04T02:03:13;21.50;99.90
14411;DHT22;7290;50.854;4.354;2022-09-04T02:05:55;21.60;99.90
14411;DHT22;7290;50.854;4.354;2022-09-04T02:08:33;21.60;99.90
14411;DHT22;7290;50.854;4.354;2022-09-04T02:11:05;21.50;99.90
14411;DHT22;7290;50.854;4.354;2022-09-04T02:13:43;21.40;99.90
14411;DHT22;7290;50.854;4.354;2022-09-04T02:16:17;21.40;99.90
14411;DHT22;7290;50.854;4.354;2022-09-04T02:18:54;21.40;99.90
14411;DHT22;7290;50.854;4.354;2022-09-04T02:21:30;21.40;99.90
14411;DHT22;7290;50.854;4.354;2022-09-04T02:24:06;21.40;99.90
14411;DHT22;7290;50.854;4.354;2022-09-04T02:26:35;21.30;99.90
14411;DHT22;7290;50.854;4.354;2022-09-04T02:29:09;21.40;99.90
14411;DHT22;7290;50.854;4.354;2022-09-04T02:31:46;21.30;99.90
14411;DHT22;7290;50.854;4.354;2022-09-04T02:34:20;21.30;99.90
14411;DHT22;7290;50.854;4.354;2022-09-04T02:36:52;21.20;99.90
14411;DHT22;7290;50.854;4.354;2022-09-04T02:39:31;21.20;99.90
14411;DHT22;7290;50.854;4.354;2022-09-04T02:42:08;21.20;99.90
14411;DHT22;7290;50.854;4.354;2022-09-04T02:44:43;21.20;99.90
14411;DHT22;7290;50.854;4.354;2022-09-04T02:47:21;21.10;99.90
14411;DHT22;7290;50.854;4.354;2022-09-04T02:49:57;21.00;99.90
14411;DHT22;7290;50.854;4.354;2022-09-04T02:52:41;21.00;99.90
14411;DHT22;7290;50.854;4.354;2022-09-04T02:55:18;21.00;99.90
14411;DHT22;7290;50.854;4.354;2022-09-04T02:57:57;20.90;99.90
14411;DHT22;7290;50.854;4.354;2022-09-04T03:00:35;20.90;99.90
14411;DHT22;7290;50.854;4.354;2022-09-04T03:03:10;20.80;99.90
14411;DHT22;7290;50.854;4.354;2022-09-04T03:05:41;20.70;99.90
14411;DHT22;7290;50.854;4.354;2022-09-04T03:08:14;20.70;99.90
14411;DHT22;7290;50.854;4.354;2022-09-04T03:10:46;20.70;99.90
14411;DHT22;7290;50.854;4.354;2022-09-04T03:13:20;20.70;99.90
14411;DHT22;7290;50.854;4.354;2022-09-04T03:15:52;20.70;99.90
14411;DHT22;7290;50.854;4.354;2022-09-04T03:18:24;20.70;99.90
14411;DHT22;7290;50.854;4.354;2022-09-04T03:20:56;20.70;99.90
14411;DHT22;7290;50.854;4.354;2022-09-04T03:23:31;20.70;99.90
14411;DHT22;7290;50.854;4.354;2022-09-04T03:26:20;20.70;99.90
14411;DHT22;7290;50.854;4.354;2022-09-04T03:28:58;20.70;99.90
14411;DHT22;7290;50.854;4.354;2022-09-04T03:31:32;20.70;99.90
14411;DHT22;7290;50.854;4.354;2022-09-04T03:34:28;20.80;99.90
14411;DHT22;7290;50.854;4.354;2022-09-04T03:37:08;20.50;99.90
14411;DHT22;7290;50.854;4.354;2022-09-04T03:39:47;20.60;99.90
14411;DHT22;7290;50.854;4.354;2022-09-04T03:42:24;20.70;99.90
14411;DHT22;7290;50.854;4.354;2022-09-04T03:44:59;20.80;99.90
14411;DHT22;7290;50.854;4.354;2022-09-04T03:47:36;20.80;99.90
14411;DHT22;7290;50.854;4.354;2022-09-04T03:50:13;20.80;99.90
14411;DHT22;7290;50.854;4.354;2022-09-04T03:52:50;20.70;99.90
14411;DHT22;7290;50.854;4.354;2022-09-04T03:58:25;20.70;99.90
14411;DHT22;7290;50.854;4.354;2022-09-04T04:00:58;20.80;99.90
14411;DHT22;7290;50.854;4.354;2022-09-04T04:03:47;20.90;99.90
14411;DHT22;7290;50.854;4.354;2022-09-04T04:06:22;20.90;99.90
14411;DHT22;7290;50.854;4.354;2022-09-04T04:09:02;20.70;99.90
14411;DHT22;7290;50.854;4.354;2022-09-04T04:11:53;20.60;99.90
14411;DHT22;7290;50.854;4.354;2022-09-04T04:14:36;20.50;99.90
14411;DHT22;7290;50.854;4.354;2022-09-04T04:17:19;20.40;99.90
14411;DHT22;7290;50.854;4.354;2022-09-04T04:20:00;20.40;99.90
14411;DHT22;7290;50.854;4.354;2022-09-04T04:22:54;20.40;99.90
14411;DHT22;7290;50.854;4.354;2022-09-04T04:25:41;20.40;99.90
14411;DHT22;7290;50.854;4.354;2022-09-04T04:28:26;20.40;99.90
14411;DHT22;7290;50.854;4.354;2022-09-04T04:31:07;20.40;99.90
14411;DHT22;7290;50.854;4.354;2022-09-04T04:33:47;20.40;99.90
14411;DHT22;7290;50.854;4.354;2022-09-04T04:36:27;20.50;99.90
14411;DHT22;7290;50.854;4.354;2022-09-04T04:39:10;20.50;99.90
14411;DHT22;7290;50.854;4.354;2022-09-04T04:41:47;20.40;99.90
14411;DHT22;7290;50.854;4.354;2022-09-04T04:44:48;20.40;99.90
14411;DHT22;7290;50.854;4.354;2022-09-04T04:47:51;20.40;99.90
14411;DHT22;7290;50.854;4.354;2022-09-04T04:50:21;20.30;99.90
14411;DHT22;7290;50.854;4.354;2022-09-04T04:52:58;20.30;99.90
14411;DHT22;7290;50.854;4.354;2022-09-04T04:55:34;20.20;99.90
14411;DHT22;7290;50.854;4.354;2022-09-04T05:01:12;20.20;99.90
14411;DHT22;7290;50.854;4.354;2022-09-04T05:03:58;20.10;99.90
14411;DHT22;7290;50.854;4.354;2022-09-04T05:06:32;20.10;99.90
14411;DHT22;7290;50.854;4.354;2022-09-04T05:09:07;20.10;99.90
14411;DHT22;7290;50.854;4.354;2022-09-04T05:11:38;20.10;99.90
14411;DHT22;7290;50.854;4.354;2022-09-04T05:14:16;20.20;99.90
14411;DHT22;7290;50.854;4.354;2022-09-04T05:16:49;20.10;99.90
14411;DHT22;7290;50.854;4.354;2022-09-04T05:19:23;20.20;99.90
14411;DHT22;7290;50.854;4.354;2022-09-04T05:21:58;20.40;99.90
14411;DHT22;7290;50.854;4.354;2022-09-04T05:24:30;20.40;99.90
14411;DHT22;7290;50.854;4.354;2022-09-04T05:27:01;20.40;99.90
14411;DHT22;7290;50.854;4.354;2022-09-04T05:29:38;20.40;99.90
14411;DHT22;7290;50.854;4.354;2022-09-04T05:32:17;20.40;99.90
14411;DHT22;7290;50.854;4.354;2022-09-04T05:35:00;20.40;99.90
14411;DHT22;7290;50.854;4.354;2022-09-04T05:37:34;20.50;99.90
14411;DHT22;7290;50.854;4.354;2022-09-04T05:40:06;20.40;99.90
14411;DHT22;7290;50.854;4.354;2022-09-04T05:42:42;20.30;99.90
14411;DHT22;7290;50.854;4.354;2022-09-04T05:45:22;20.30;99.90
14411;DHT22;7290;50.854;4.354;2022-09-04T05:47:57;20.30;99.90
14411;DHT22;7290;50.854;4.354;2022-09-04T05:50:35;20.30;99.90
14411;DHT22;7290;50.854;4.354;2022-09-04T05:53:41;20.30;99.90
14411;DHT22;7290;50.854;4.354;2022-09-04T05:59:46;20.40;99.90
14411;DHT22;7290;50.854;4.354;2022-09-04T06:02:35;20.40;99.90
14411;DHT22;7290;50.854;4.354;2022-09-04T06:05:17;20.40;99.90
14411;DHT22;7290;50.854;4.354;2022-09-04T06:07:53;20.40;99.90
14411;DHT22;7290;50.854;4.354;2022-09-04T06:10:25;20.50;99.90
14411;DHT22;7290;50.854;4.354;2022-09-04T06:13:13;20.60;99.90
14411;DHT22;7290;50.854;4.354;2022-09-04T06:15:52;20.60;99.90
14411;DHT22;7290;50.854;4.354;2022-09-04T06:18:39;20.60;99.90
14411;DHT22;7290;50.854;4.354;2022-09-04T06:21:46;20.80;99.90
14411;DHT22;7290;50.854;4.354;2022-09-04T06:24:28;20.90;99.90
14411;DHT22;7290;50.854;4.354;2022-09-04T06:30:04;20.90;99.90
14411;DHT22;7290;50.854;4.354;2022-09-04T06:32:47;21.00;99.90
14411;DHT22;7290;50.854;4.354;2022-09-04T06:35:26;21.20;99.90
14411;DHT22;7290;50.854;4.354;2022-09-04T06:38:07;21.20;99.90
14411;DHT22;7290;50.854;4.354;2022-09-04T06:40:47;21.30;99.90
14411;DHT22;7290;50.854;4.354;2022-09-04T06:43:21;21.20;99.90
14411;DHT22;7290;50.854;4.354;2022-09-04T06:45:59;21.60;99.90
14411;DHT22;7290;50.854;4.354;2022-09-04T06:48:37;22.90;99.90
14411;DHT22;7290;50.854;4.354;2022-09-04T06:51:16;24.90;99.90
14411;DHT22;7290;50.854;4.354;2022-09-04T06:53:51;26.90;99.90
14411;DHT22;7290;50.854;4.354;2022-09-04T06:59:35;30.40;99.40
14411;DHT22;7290;50.854;4.354;2022-09-04T07:02:15;31.20;97.40
14411;DHT22;7290;50.854;4.354;2022-09-04T07:04:53;31.60;96.40
14411;DHT22;7290;50.854;4.354;2022-09-04T07:07:28;31.70;95.50
14411;DHT22;7290;50.854;4.354;2022-09-04T07:09:58;29.90;97.10
14411;DHT22;7290;50.854;4.354;2022-09-04T07:18:56;25.30;99.90
14411;DHT22;7290;50.854;4.354;2022-09-04T07:21:29;24.60;99.90
14411;DHT22;7290;50.854;4.354;2022-09-04T07:24:02;24.20;99.90
14411;DHT22;7290;50.854;4.354;2022-09-04T07:26:35;23.70;99.90
14411;DHT22;7290;50.854;4.354;2022-09-04T07:29:09;23.30;99.90
14411;DHT22;7290;50.854;4.354;2022-09-04T07:31:39;23.10;99.90
14411;DHT22;7290;50.854;4.354;2022-09-04T07:34:13;23.10;99.90
14411;DHT22;7290;50.854;4.354;2022-09-04T07:36:44;23.30;99.90
14411;DHT22;7290;50.854;4.354;2022-09-04T07:39:19;23.50;99.90
14411;DHT22;7290;50.854;4.354;2022-09-04T07:41:52;23.70;99.90
14411;DHT22;7290;50.854;4.354;2022-09-04T07:44:23;23.70;99.90
14411;DHT22;7290;50.854;4.354;2022-09-04T07:46:57;23.70;99.90
14411;DHT22;7290;50.854;4.354;2022-09-04T07:49:32;23.90;99.90
14411;DHT22;7290;50.854;4.354;2022-09-04T07:52:07;23.90;99.90
14411;DHT22;7290;50.854;4.354;2022-09-04T07:57:36;24.20;99.90
14411;DHT22;7290;50.854;4.354;2022-09-04T08:00:06;24.10;99.90
14411;DHT22;7290;50.854;4.354;2022-09-04T08:02:59;24.00;99.90
14411;DHT22;7290;50.854;4.354;2022-09-04T08:05:30;24.20;99.90
14411;DHT22;7290;50.854;4.354;2022-09-04T08:08:24;24.30;99.90
14411;DHT22;7290;50.854;4.354;2022-09-04T08:11:14;24.40;99.90
14411;DHT22;7290;50.854;4.354;2022-09-04T08:14:01;24.10;99.90
14411;DHT22;7290;50.854;4.354;2022-09-04T08:16:39;24.00;99.90
14411;DHT22;7290;50.854;4.354;2022-09-04T08:19:22;24.20;99.90
14411;DHT22;7290;50.854;4.354;2022-09-04T08:21:52;24.10;99.90
14411;DHT22;7290;50.854;4.354;2022-09-04T08:24:39;23.80;99.90
14411;DHT22;7290;50.854;4.354;2022-09-04T08:27:22;23.90;99.90
14411;DHT22;7290;50.854;4.354;2022-09-04T08:30:00;24.10;99.90
14411;DHT22;7290;50.854;4.354;2022-09-04T08:32:59;24.30;99.90
14411;DHT22;7290;50.854;4.354;2022-09-04T08:35:35;25.80;99.90
14411;DHT22;7290;50.854;4.354;2022-09-04T08:38:19;28.50;99.90
14411;DHT22;7290;50.854;4.354;2022-09-04T08:44:28;31.20;94.80
14411;DHT22;7290;50.854;4.354;2022-09-04T08:50:28;31.70;93.20
14411;DHT22;7290;50.854;4.354;2022-09-04T08:56:20;33.40;90.70
14411;DHT22;7290;50.854;4.354;2022-09-04T08:59:22;33.60;90.10
14411;DHT22;7290;50.854;4.354;2022-09-04T09:08:46;32.10;90.30
14411;DHT22;7290;50.854;4.354;2022-09-04T09:11:39;32.10;90.60
14411;DHT22;7290;50.854;4.354;2022-09-04T09:14:36;32.00;90.20
14411;DHT22;7290;50.854;4.354;2022-09-04T09:17:11;31.60;90.70
14411;DHT22;7290;50.854;4.354;2022-09-04T09:19:55;32.50;90.20
14411;DHT22;7290;50.854;4.354;2022-09-04T09:22:43;33.70;86.90
14411;DHT22;7290;50.854;4.354;2022-09-04T09:25:17;33.80;85.00
14411;DHT22;7290;50.854;4.354;2022-09-04T09:31:15;34.10;83.50
14411;DHT22;7290;50.854;4.354;2022-09-04T09:37:07;34.00;82.20
14411;DHT22;7290;50.854;4.354;2022-09-04T09:39:56;33.60;82.30
14411;DHT22;7290;50.854;4.354;2022-09-04T09:45:51;34.30;80.80
14411;DHT22;7290;50.854;4.354;2022-09-04T09:48:40;34.60;79.60
14411;DHT22;7290;50.854;4.354;2022-09-04T09:51:57;34.40;76.90
14411;DHT22;7290;50.854;4.354;2022-09-04T09:54:41;33.10;77.80
14411;DHT22;7290;50.854;4.354;2022-09-04T09:57:32;33.20;75.60
14411;DHT22;7290;50.854;4.354;2022-09-04T10:00:14;33.00;75.70
14411;DHT22;7290;50.854;4.354;2022-09-04T10:05:55;33.80;74.90
14411;DHT22;7290;50.854;4.354;2022-09-04T10:08:40;33.20;75.10
14411;DHT22;7290;50.854;4.354;2022-09-04T10:17:44;33.30;71.60
14411;DHT22;7290;50.854;4.354;2022-09-04T10:20:30;34.40;69.60
14411;DHT22;7290;50.854;4.354;2022-09-04T10:23:20;35.00;68.00
14411;DHT22;7290;50.854;4.354;2022-09-04T10:31:53;34.90;69.20
14411;DHT22;7290;50.854;4.354;2022-09-04T10:34:39;35.60;67.80
14411;DHT22;7290;50.854;4.354;2022-09-04T10:37:25;34.80;66.50
14411;DHT22;7290;50.854;4.354;2022-09-04T10:40:03;34.90;66.60
14411;DHT22;7290;50.854;4.354;2022-09-04T10:43:02;34.80;66.70
14411;DHT22;7290;50.854;4.354;2022-09-04T10:45:36;34.40;66.90
14411;DHT22;7290;50.854;4.354;2022-09-04T10:48:23;34.60;65.80
14411;DHT22;7290;50.854;4.354;2022-09-04T10:51:12;35.00;66.00
14411;DHT22;7290;50.854;4.354;2022-09-04T10:57:03;34.50;66.20
14411;DHT22;7290;50.854;4.354;2022-09-04T11:00:00;34.70;64.90
14411;DHT22;7290;50.854;4.354;2022-09-04T11:08:53;35.40;63.80
14411;DHT22;7290;50.854;4.354;2022-09-04T11:11:35;36.30;61.10
14411;DHT22;7290;50.854;4.354;2022-09-04T11:14:31;36.30;60.20
14411;DHT22;7290;50.854;4.354;2022-09-04T11:20:25;34.70;62.70
14411;DHT22;7290;50.854;4.354;2022-09-04T11:23:37;35.50;61.90
14411;DHT22;7290;50.854;4.354;2022-09-04T11:26:57;35.40;61.70
14411;DHT22;7290;50.854;4.354;2022-09-04T11:29:55;35.10;62.10
14411;DHT22;7290;50.854;4.354;2022-09-04T11:32:44;35.10;62.00
14411;DHT22;7290;50.854;4.354;2022-09-04T11:35:34;35.10;62.50
14411;DHT22;7290;50.854;4.354;2022-09-04T11:38:08;34.90;62.90
14411;DHT22;7290;50.854;4.354;2022-09-04T11:44:15;34.70;63.10
14411;DHT22;7290;50.854;4.354;2022-09-04T11:47:35;34.70;62.90
14411;DHT22;7290;50.854;4.354;2022-09-04T11:50:17;34.10;65.20
14411;DHT22;7290;50.854;4.354;2022-09-04T11:53:11;34.20;64.70
14411;DHT22;7290;50.854;4.354;2022-09-04T11:56:03;34.10;64.30
14411;DHT22;7290;50.854;4.354;2022-09-04T11:58:45;33.10;65.00
14411;DHT22;7290;50.854;4.354;2022-09-04T12:01:27;32.90;65.50
14411;DHT22;7290;50.854;4.354;2022-09-04T12:04:29;32.70;66.20
14411;DHT22;7290;50.854;4.354;2022-09-04T12:07:11;32.70;65.70
14411;DHT22;7290;50.854;4.354;2022-09-04T12:10:05;32.60;65.70
14411;DHT22;7290;50.854;4.354;2022-09-04T12:12:53;32.60;66.50
14411;DHT22;7290;50.854;4.354;2022-09-04T12:22:15;31.40;68.70
14411;DHT22;7290;50.854;4.354;2022-09-04T12:24:59;30.80;70.90
14411;DHT22;7290;50.854;4.354;2022-09-04T12:30:18;30.90;71.60
14411;DHT22;7290;50.854;4.354;2022-09-04T12:33:25;30.40;72.00
14411;DHT22;7290;50.854;4.354;2022-09-04T12:39:23;30.20;72.80
14411;DHT22;7290;50.854;4.354;2022-09-04T12:41:55;29.80;73.70
14411;DHT22;7290;50.854;4.354;2022-09-04T12:44:33;29.30;75.00
14411;DHT22;7290;50.854;4.354;2022-09-04T12:47:10;29.30;75.50
14411;DHT22;7290;50.854;4.354;2022-09-04T12:50:02;29.60;73.80
14411;DHT22;7290;50.854;4.354;2022-09-04T12:52:45;29.60;73.60
14411;DHT22;7290;50.854;4.354;2022-09-04T12:55:24;29.60;73.70
14411;DHT22;7290;50.854;4.354;2022-09-04T12:58:00;29.40;74.80
14411;DHT22;7290;50.854;4.354;2022-09-04T13:00:32;29.50;75.10
14411;DHT22;7290;50.854;4.354;2022-09-04T13:03:11;29.70;74.20
14411;DHT22;7290;50.854;4.354;2022-09-04T13:05:56;29.20;74.50
14411;DHT22;7290;50.854;4.354;2022-09-04T13:08:39;29.30;75.10
14411;DHT22;7290;50.854;4.354;2022-09-04T13:11:16;29.40;75.20
14411;DHT22;7290;50.854;4.354;2022-09-04T13:13:51;29.40;75.70
14411;DHT22;7290;50.854;4.354;2022-09-04T13:16:25;29.30;75.70
14411;DHT22;7290;50.854;4.354;2022-09-04T13:19:01;29.30;75.20
14411;DHT22;7290;50.854;4.354;2022-09-04T13:21:42;29.40;75.30
14411;DHT22;7290;50.854;4.354;2022-09-04T13:24:24;29.50;75.30
14411;DHT22;7290;50.854;4.354;2022-09-04T13:27:11;29.40;75.90
14411;DHT22;7290;50.854;4.354;2022-09-04T13:29:46;29.00;76.80
14411;DHT22;7290;50.854;4.354;2022-09-04T13:32:40;29.10;76.50
14411;DHT22;7290;50.854;4.354;2022-09-04T13:35:16;29.50;76.30
14411;DHT22;7290;50.854;4.354;2022-09-04T13:38:10;29.40;76.30
14411;DHT22;7290;50.854;4.354;2022-09-04T13:41:13;29.40;76.40
14411;DHT22;7290;50.854;4.354;2022-09-04T13:44:03;29.30;76.70
14411;DHT22;7290;50.854;4.354;2022-09-04T13:46:35;29.40;76.70
14411;DHT22;7290;50.854;4.354;2022-09-04T13:49:05;29.50;76.30
14411;DHT22;7290;50.854;4.354;2022-09-04T13:51:36;29.40;76.10
14411;DHT22;7290;50.854;4.354;2022-09-04T13:54:07;29.50;76.10
14411;DHT22;7290;50.854;4.354;2022-09-04T13:56:38;29.70;75.60
14411;DHT22;7290;50.854;4.354;2022-09-04T13:59:09;29.80;75.20
14411;DHT22;7290;50.854;4.354;2022-09-04T14:01:42;29.80;75.70
14411;DHT22;7290;50.854;4.354;2022-09-04T14:04:13;29.80;75.70
14411;DHT22;7290;50.854;4.354;2022-09-04T14:06:42;29.60;76.40
14411;DHT22;7290;50.854;4.354;2022-09-04T14:09:09;29.60;76.20
14411;DHT22;7290;50.854;4.354;2022-09-04T14:11:54;29.30;76.10
14411;DHT22;7290;50.854;4.354;2022-09-04T14:14:45;29.50;75.60
14411;DHT22;7290;50.854;4.354;2022-09-04T14:17:15;29.60;75.50
14411;DHT22;7290;50.854;4.354;2022-09-04T14:19:55;29.50;75.80
14411;DHT22;7290;50.854;4.354;2022-09-04T14:22:31;29.40;76.10
14411;DHT22;7290;50.854;4.354;2022-09-04T14:25:08;29.30;75.70
14411;DHT22;7290;50.854;4.354;2022-09-04T14:27:40;29.40;73.90
14411;DHT22;7290;50.854;4.354;2022-09-04T14:30:14;29.50;73.50
14411;DHT22;7290;50.854;4.354;2022-09-04T14:32:52;29.60;74.00
14411;DHT22;7290;50.854;4.354;2022-09-04T14:35:28;29.40;75.50
14411;DHT22;7290;50.854;4.354;2022-09-04T14:38:12;29.10;76.30
14411;DHT22;7290;50.854;4.354;2022-09-04T14:40:54;29.40;76.00
14411;DHT22;7290;50.854;4.354;2022-09-04T14:43:26;29.20;76.40
14411;DHT22;7290;50.854;4.354;2022-09-04T14:46:06;29.40;76.70
14411;DHT22;7290;50.854;4.354;2022-09-04T14:48:36;29.50;77.00
14411;DHT22;7290;50.854;4.354;2022-09-04T14:51:14;29.30;77.70
14411;DHT22;7290;50.854;4.354;2022-09-04T14:53:45;29.40;77.80
14411;DHT22;7290;50.854;4.354;2022-09-04T14:56:30;29.40;77.90
14411;DHT22;7290;50.854;4.354;2022-09-04T14:59:04;29.20;78.10
14411;DHT22;7290;50.854;4.354;2022-09-04T15:01:37;29.10;77.10
14411;DHT22;7290;50.854;4.354;2022-09-04T15:04:21;29.10;77.20
14411;DHT22;7290;50.854;4.354;2022-09-04T15:06:50;29.30;77.20
14411;DHT22;7290;50.854;4.354;2022-09-04T15:09:21;29.40;76.90
14411;DHT22;7290;50.854;4.354;2022-09-04T15:11:49;29.50;76.70
14411;DHT22;7290;50.854;4.354;2022-09-04T15:14:20;29.60;75.80
14411;DHT22;7290;50.854;4.354;2022-09-04T15:16:57;29.80;76.00
14411;DHT22;7290;50.854;4.354;2022-09-04T15:19:42;29.80;76.30
14411;DHT22;7290;50.854;4.354;2022-09-04T15:22:14;29.50;75.70
14411;DHT22;7290;50.854;4.354;2022-09-04T15:24:50;29.40;76.00
14411;DHT22;7290;50.854;4.354;2022-09-04T15:27:21;29.50;76.70
14411;DHT22;7290;50.854;4.354;2022-09-04T15:30:03;29.20;76.70
14411;DHT22;7290;50.854;4.354;2022-09-04T15:32:34;29.40;77.90
14411;DHT22;7290;50.854;4.354;2022-09-04T15:35:22;29.30;76.70
14411;DHT22;7290;50.854;4.354;2022-09-04T15:38:04;29.40;76.00
14411;DHT22;7290;50.854;4.354;2022-09-04T15:40:34;29.40;75.50
14411;DHT22;7290;50.854;4.354;2022-09-04T15:43:08;29.40;75.90
14411;DHT22;7290;50.854;4.354;2022-09-04T15:45:42;29.60;75.50
14411;DHT22;7290;50.854;4.354;2022-09-04T15:48:28;29.70;74.80
14411;DHT22;7290;50.854;4.354;2022-09-04T15:51:14;29.90;74.90
14411;DHT22;7290;50.854;4.354;2022-09-04T15:53:47;30.40;74.50
14411;DHT22;7290;50.854;4.354;2022-09-04T15:56:29;30.30;73.00
14411;DHT22;7290;50.854;4.354;2022-09-04T15:59:03;30.20;73.50
14411;DHT22;7290;50.854;4.354;2022-09-04T16:01:41;30.20;73.20
14411;DHT22;7290;50.854;4.354;2022-09-04T16:04:16;30.00;74.30
14411;DHT22;7290;50.854;4.354;2022-09-04T16:06:48;30.20;73.70
14411;DHT22;7290;50.854;4.354;2022-09-04T16:09:22;30.10;73.60
14411;DHT22;7290;50.854;4.354;2022-09-04T16:11:59;29.70;74.30
14411;DHT22;7290;50.854;4.354;2022-09-04T16:14:31;29.80;74.20
14411;DHT22;7290;50.854;4.354;2022-09-04T16:17:04;29.80;74.30
14411;DHT22;7290;50.854;4.354;2022-09-04T16:19:37;29.90;74.30
14411;DHT22;7290;50.854;4.354;2022-09-04T16:22:15;30.30;74.10
14411;DHT22;7290;50.854;4.354;2022-09-04T16:24:45;30.80;73.20
14411;DHT22;7290;50.854;4.354;2022-09-04T16:27:14;30.50;73.10
14411;DHT22;7290;50.854;4.354;2022-09-04T16:29:45;30.50;73.60
14411;DHT22;7290;50.854;4.354;2022-09-04T16:32:18;30.20;73.90
14411;DHT22;7290;50.854;4.354;2022-09-04T16:34:48;29.90;74.50
14411;DHT22;7290;50.854;4.354;2022-09-04T16:37:21;29.60;75.30
14411;DHT22;7290;50.854;4.354;2022-09-04T16:40:00;29.60;75.60
14411;DHT22;7290;50.854;4.354;2022-09-04T16:42:33;29.60;75.30
14411;DHT22;7290;50.854;4.354;2022-09-04T16:45:05;29.80;74.60
14411;DHT22;7290;50.854;4.354;2022-09-04T16:47:39;30.00;74.40
14411;DHT22;7290;50.854;4.354;2022-09-04T16:50:13;30.40;73.70
14411;DHT22;7290;50.854;4.354;2022-09-04T16:52:55;30.70;73.30
14411;DHT22;7290;50.854;4.354;2022-09-04T16:55:26;30.90;72.80
14411;DHT22;7290;50.854;4.354;2022-09-04T16:58:04;30.60;72.90
14411;DHT22;7290;50.854;4.354;2022-09-04T17:00:50;30.10;72.40
14411;DHT22;7290;50.854;4.354;2022-09-04T17:03:21;29.70;72.60
14411;DHT22;7290;50.854;4.354;2022-09-04T17:05:51;29.40;73.30
14411;DHT22;7290;50.854;4.354;2022-09-04T17:08:25;29.20;74.10
14411;DHT22;7290;50.854;4.354;2022-09-04T17:10:55;29.10;73.80
14411;DHT22;7290;50.854;4.354;2022-09-04T17:13:26;29.10;74.20
14411;DHT22;7290;50.854;4.354;2022-09-04T17:15:56;29.10;74.50
14411;DHT22;7290;50.854;4.354;2022-09-04T17:18:25;29.10;74.80
14411;DHT22;7290;50.854;4.354;2022-09-04T17:20:59;29.20;75.10
14411;DHT22;7290;50.854;4.354;2022-09-04T17:23:33;29.40;74.70
14411;DHT22;7290;50.854;4.354;2022-09-04T17:26:06;29.60;74.70
14411;DHT22;7290;50.854;4.354;2022-09-04T17:28:44;29.60;74.50
14411;DHT22;7290;50.854;4.354;2022-09-04T17:31:15;29.70;74.30
14411;DHT22;7290;50.854;4.354;2022-09-04T17:33:47;29.30;74.40
14411;DHT22;7290;50.854;4.354;2022-09-04T17:36:18;29.20;74.50
14411;DHT22;7290;50.854;4.354;2022-09-04T17:38:48;29.20;74.80
14411;DHT22;7290;50.854;4.354;2022-09-04T17:41:19;29.30;74.80
14411;DHT22;7290;50.854;4.354;2022-09-04T17:43:59;29.50;74.30
14411;DHT22;7290;50.854;4.354;2022-09-04T17:46:32;29.10;74.80
14411;DHT22;7290;50.854;4.354;2022-09-04T17:49:10;28.80;74.50
14411;DHT22;7290;50.854;4.354;2022-09-04T17:51:37;28.70;75.10
14411;DHT22;7290;50.854;4.354;2022-09-04T17:54:10;28.60;74.60
14411;DHT22;7290;50.854;4.354;2022-09-04T17:56:42;28.40;74.80
14411;DHT22;7290;50.854;4.354;2022-09-04T17:59:17;28.30;75.40
14411;DHT22;7290;50.854;4.354;2022-09-04T18:01:53;28.20;75.20
14411;DHT22;7290;50.854;4.354;2022-09-04T18:04:28;28.20;75.40
14411;DHT22;7290;50.854;4.354;2022-09-04T18:07:00;28.10;75.50
14411;DHT22;7290;50.854;4.354;2022-09-04T18:09:34;28.00;75.80
14411;DHT22;7290;50.854;4.354;2022-09-04T18:12:06;27.80;76.00
14411;DHT22;7290;50.854;4.354;2022-09-04T18:14:41;27.90;76.10
14411;DHT22;7290;50.854;4.354;2022-09-04T18:17:16;27.80;76.40
14411;DHT22;7290;50.854;4.354;2022-09-04T18:19:46;27.70;76.50
14411;DHT22;7290;50.854;4.354;2022-09-04T18:22:24;27.50;77.00
14411;DHT22;7290;50.854;4.354;2022-09-04T18:24:56;27.50;77.30
14411;DHT22;7290;50.854;4.354;2022-09-04T18:27:30;27.40;77.30
14411;DHT22;7290;50.854;4.354;2022-09-04T18:29:59;27.40;77.60
14411;DHT22;7290;50.854;4.354;2022-09-04T18:32:35;27.40;77.70
14411;DHT22;7290;50.854;4.354;2022-09-04T18:35:08;27.40;77.90